createdAt,value
2022-10-04T00:01:30.313Z,2.20
2022-10-04T00:03:47.880Z,2.30
2022-10-04T00:06:03.019Z,2.50
2022-10-04T00:08:32.929Z,2.70
2022-10-04T00:10:46.178Z,2.60
2022-10-04T00:13:03.416Z,2.00
2022-10-04T00:15:26.957Z,2.20
2022-10-04T00:17:40.318Z,2.20
2022-10-04T00:19:55.166Z,2.30
2022-10-04T00:22:31.059Z,2.50
2022-10-04T00:25:04.626Z,2.30
2022-10-04T00:27:28.222Z,2.30
2022-10-04T00:29:43.369Z,2.00
2022-10-04T00:32:30.774Z,1.20
2022-10-04T00:34:54.597Z,1.90
2022-10-04T00:37:16.825Z,1.90
2022-10-04T00:39:48.016Z,1.70
2022-10-04T00:42:21.341Z,2.00
2022-10-04T00:44:42.604Z,1.40
2022-10-04T00:46:58.531Z,1.20
2022-10-04T00:49:14.871Z,1.20
2022-10-04T00:51:34.807Z,1.10
2022-10-04T00:53:58.863Z,1.20
2022-10-04T00:56:15.591Z,1.10
2022-10-04T00:58:33.532Z,1.00
2022-10-04T01:00:49.401Z,1.10
2022-10-04T01:03:08.525Z,1.00
2022-10-04T01:05:27.953Z,1.00
2022-10-04T01:07:45.487Z,1.00
2022-10-04T01:10:01.006Z,1.20
2022-10-04T01:12:20.714Z,1.30
2022-10-04T01:14:39.830Z,1.10
2022-10-04T01:16:54.991Z,1.30
2022-10-04T01:19:33.381Z,1.30
2022-10-04T01:21:50.294Z,1.40
2022-10-04T01:24:25.499Z,1.50
2022-10-04T01:26:48.767Z,1.90
2022-10-04T01:29:03.270Z,2.40
2022-10-04T01:31:18.017Z,1.60
2022-10-04T01:33:32.416Z,1.40
2022-10-04T01:35:45.985Z,1.30
2022-10-04T01:37:59.241Z,1.40
2022-10-04T01:40:14.475Z,1.30
2022-10-04T01:42:32.884Z,1.30
2022-10-04T01:44:55.079Z,1.20
2022-10-04T01:47:14.724Z,1.60
2022-10-04T01:49:32.265Z,1.30
2022-10-04T01:51:52.469Z,1.20
2022-10-04T01:54:09.981Z,1.20
2022-10-04T01:56:25.620Z,1.20
2022-10-04T01:58:44.845Z,1.80
2022-10-04T02:01:03.003Z,1.60
2022-10-04T02:03:22.225Z,3.10
2022-10-04T02:05:40.776Z,1.80
2022-10-04T02:07:55.530Z,1.60
2022-10-04T02:10:14.494Z,2.20
2022-10-04T02:12:28.259Z,1.80
2022-10-04T02:14:47.542Z,1.70
2022-10-04T02:17:02.129Z,1.60
2022-10-04T02:19:16.121Z,1.00
2022-10-04T02:21:29.779Z,0.90
2022-10-04T02:23:44.612Z,1.20
2022-10-04T02:25:57.920Z,1.10
2022-10-04T02:28:14.439Z,1.20
2022-10-04T02:30:28.549Z,1.30
2022-10-04T02:33:01.669Z,0.90
2022-10-04T02:35:15.620Z,1.00
2022-10-04T02:37:32.178Z,1.10
2022-10-04T02:39:48.478Z,1.30
2022-10-04T02:42:06.337Z,1.20
2022-10-04T02:44:25.236Z,1.30
2022-10-04T02:46:42.512Z,1.30
2022-10-04T02:49:00.050Z,1.30
2022-10-04T02:51:24.572Z,1.50
2022-10-04T02:53:49.445Z,1.40
2022-10-04T02:56:02.795Z,1.20
2022-10-04T02:58:21.493Z,1.30
2022-10-04T03:00:35.921Z,1.30
2022-10-04T03:03:20.716Z,1.30
2022-10-04T03:05:33.945Z,1.70
2022-10-04T03:07:47.219Z,3.60
2022-10-04T03:10:00.470Z,4.00
2022-10-04T03:12:17.083Z,3.30
2022-10-04T03:14:31.948Z,3.20
2022-10-04T03:16:48.336Z,1.30
2022-10-04T03:19:04.032Z,1.70
2022-10-04T03:21:21.406Z,1.90
2022-10-04T03:23:37.366Z,2.00
2022-10-04T03:25:58.731Z,2.20
2022-10-04T03:28:12.304Z,2.00
2022-10-04T03:30:25.697Z,1.90
2022-10-04T03:32:40.009Z,1.80
2022-10-04T03:35:00.510Z,1.70
2022-10-04T03:37:19.465Z,1.10
2022-10-04T03:39:38.214Z,1.20
2022-10-04T03:41:52.287Z,1.60
2022-10-04T03:44:05.559Z,1.50
2022-10-04T03:46:21.000Z,1.60
2022-10-04T03:48:38.763Z,1.30
2022-10-04T03:50:54.438Z,1.10
2022-10-04T03:53:11.017Z,1.10
2022-10-04T03:55:27.791Z,1.20
2022-10-04T03:57:41.642Z,1.10
2022-10-04T03:59:55.414Z,1.30
2022-10-04T04:02:15.171Z,1.50
2022-10-04T04:04:38.478Z,0.90
2022-10-04T04:06:56.183Z,1.00
2022-10-04T04:09:12.527Z,1.00
2022-10-04T04:11:28.616Z,0.70
2022-10-04T04:13:56.173Z,0.90
2022-10-04T04:16:10.664Z,1.00
2022-10-04T04:18:28.529Z,0.70
2022-10-04T04:20:44.896Z,0.70
2022-10-04T04:23:05.447Z,0.80
2022-10-04T04:25:24.824Z,0.70
2022-10-04T04:27:42.979Z,0.80
2022-10-04T04:29:58.554Z,0.90
2022-10-04T04:32:16.578Z,1.00
2022-10-04T04:34:32.261Z,0.90
2022-10-04T04:36:47.497Z,1.10
2022-10-04T04:39:25.751Z,1.00
2022-10-04T04:41:41.388Z,1.30
2022-10-04T04:43:54.882Z,1.50
2022-10-04T04:46:27.004Z,1.30
2022-10-04T04:50:57.136Z,1.30
2022-10-04T04:53:14.131Z,1.30
2022-10-04T04:55:44.526Z,1.80
2022-10-04T04:58:04.125Z,2.00
2022-10-04T05:00:24.985Z,1.80
2022-10-04T05:02:58.150Z,1.60
2022-10-04T05:05:29.789Z,1.40
2022-10-04T05:07:44.712Z,1.20
2022-10-04T05:09:57.811Z,1.10
2022-10-04T05:12:15.170Z,1.30
2022-10-04T05:14:28.302Z,1.10
2022-10-04T05:16:45.486Z,1.10
2022-10-04T05:19:05.495Z,1.60
2022-10-04T05:21:25.258Z,1.70
2022-10-04T05:23:39.308Z,1.60
2022-10-04T05:25:53.357Z,1.70
2022-10-04T05:28:07.007Z,1.90
2022-10-04T05:30:36.277Z,1.70
2022-10-04T05:32:59.407Z,1.30
2022-10-04T05:35:21.592Z,1.70
2022-10-04T05:37:48.738Z,1.70
2022-10-04T05:40:19.980Z,1.70
2022-10-04T05:42:46.415Z,1.60
2022-10-04T05:45:01.118Z,1.50
2022-10-04T05:47:15.928Z,1.30
2022-10-04T05:49:30.455Z,1.50
2022-10-04T05:51:56.678Z,1.50
2022-10-04T05:54:13.580Z,1.30
2022-10-04T05:56:56.473Z,0.90
2022-10-04T05:59:22.238Z,1.10
2022-10-04T06:01:46.947Z,1.40
2022-10-04T06:04:21.880Z,1.30
2022-10-04T06:06:42.003Z,1.90
2022-10-04T06:09:05.598Z,2.00
2022-10-04T06:11:32.748Z,2.40
2022-10-04T06:14:25.708Z,1.60
2022-10-04T06:16:51.794Z,1.90
2022-10-04T06:19:34.842Z,1.70
2022-10-04T06:22:04.916Z,1.30
2022-10-04T06:24:26.724Z,2.30
2022-10-04T06:26:46.804Z,2.10
2022-10-04T06:29:04.666Z,1.80
2022-10-04T06:31:50.130Z,1.50
2022-10-04T06:34:20.779Z,2.30
2022-10-04T06:37:01.226Z,1.60
2022-10-04T06:39:28.114Z,2.10
2022-10-04T06:42:08.304Z,1.20
2022-10-04T06:44:37.937Z,1.10
2022-10-04T06:46:56.446Z,1.40
2022-10-04T06:49:32.641Z,1.10
2022-10-04T06:52:01.049Z,1.20
2022-10-04T06:54:31.524Z,1.10
2022-10-04T06:57:04.628Z,1.20
2022-10-04T06:59:39.915Z,0.80
2022-10-04T07:01:59.462Z,0.90
2022-10-04T07:04:24.996Z,1.10
2022-10-04T07:06:42.010Z,0.80
2022-10-04T07:09:00.813Z,0.80
2022-10-04T07:11:24.213Z,0.80
2022-10-04T07:13:49.218Z,1.10
2022-10-04T07:16:10.034Z,1.00
2022-10-04T07:18:28.675Z,1.00
2022-10-04T07:20:43.174Z,0.90
2022-10-04T07:23:01.866Z,1.00
2022-10-04T07:25:22.693Z,0.80
2022-10-04T07:27:45.705Z,0.80
2022-10-04T07:30:02.441Z,0.80
2022-10-04T07:32:24.411Z,1.10
2022-10-04T07:34:42.293Z,1.00
2022-10-04T07:36:57.594Z,0.90
2022-10-04T07:39:17.331Z,0.90
2022-10-04T07:41:36.522Z,0.70
2022-10-04T07:43:57.525Z,0.80
2022-10-04T07:46:17.212Z,0.90
2022-10-04T07:48:30.380Z,0.80
2022-10-04T07:50:50.915Z,0.70
2022-10-04T07:53:11.943Z,0.90
2022-10-04T07:55:35.590Z,1.20
2022-10-04T07:57:56.977Z,1.00
2022-10-04T08:00:20.122Z,1.00
2022-10-04T08:02:43.158Z,0.90
2022-10-04T08:05:08.177Z,1.00
2022-10-04T08:07:28.961Z,0.90
2022-10-04T08:09:55.552Z,1.00
2022-10-04T08:12:18.730Z,0.80
2022-10-04T08:14:54.280Z,0.90
2022-10-04T08:17:21.110Z,0.90
2022-10-04T08:19:48.621Z,1.00
2022-10-04T08:22:08.948Z,1.00
2022-10-04T08:24:32.260Z,1.10
2022-10-04T08:27:05.549Z,0.80
2022-10-04T08:29:50.215Z,1.00
2022-10-04T08:32:12.094Z,1.10
2022-10-04T08:34:36.641Z,0.90
2022-10-04T08:37:04.342Z,1.00
2022-10-04T08:39:35.481Z,0.90
2022-10-04T08:42:26.855Z,0.80
2022-10-04T08:45:15.415Z,1.30
2022-10-04T08:47:51.508Z,1.00
2022-10-04T08:50:42.688Z,1.10
2022-10-04T08:53:18.644Z,1.00
2022-10-04T08:55:59.760Z,1.30
2022-10-04T08:58:19.856Z,1.30
2022-10-04T09:00:42.187Z,0.90
2022-10-04T09:03:27.853Z,1.10
2022-10-04T09:05:58.538Z,1.10
2022-10-04T09:10:51.969Z,0.90
2022-10-04T09:13:18.749Z,1.40
2022-10-04T09:15:54.547Z,0.80
2022-10-04T09:18:25.530Z,0.90
2022-10-04T09:21:00.285Z,0.90
2022-10-04T09:23:25.393Z,1.00
2022-10-04T09:26:07.716Z,1.30
2022-10-04T09:29:04.765Z,1.30
2022-10-04T09:31:39.104Z,1.10
2022-10-04T09:34:23.333Z,0.80
2022-10-04T09:36:59.468Z,1.30
2022-10-04T09:39:49.214Z,0.90
2022-10-04T09:42:33.272Z,1.20
2022-10-04T09:45:23.411Z,0.90
2022-10-04T09:47:47.238Z,1.20
2022-10-04T09:50:41.191Z,1.40
2022-10-04T09:53:08.382Z,1.00
2022-10-04T09:55:59.844Z,1.00
2022-10-04T09:58:34.546Z,1.20
2022-10-04T10:00:56.489Z,1.10
2022-10-04T10:03:36.580Z,1.10
2022-10-04T10:06:18.353Z,1.40
2022-10-04T10:08:39.892Z,0.90
2022-10-04T10:11:18.765Z,0.70
2022-10-04T10:13:48.976Z,1.00
2022-10-04T10:16:09.299Z,1.00
2022-10-04T10:18:33.995Z,1.10
2022-10-04T10:21:09.094Z,1.00
2022-10-04T10:23:55.996Z,1.10
2022-10-04T10:26:36.359Z,0.90
2022-10-04T10:29:18.110Z,2.60
2022-10-04T10:31:48.991Z,4.40
2022-10-04T10:34:24.616Z,2.70
2022-10-04T10:37:02.215Z,2.90
2022-10-04T10:39:39.783Z,3.10
2022-10-04T10:42:07.926Z,2.80
2022-10-04T10:44:42.727Z,2.80
2022-10-04T10:47:09.634Z,1.10
2022-10-04T10:49:58.788Z,1.10
2022-10-04T10:52:43.603Z,1.00
2022-10-04T10:55:32.549Z,1.10
2022-10-04T10:58:17.141Z,1.10
2022-10-04T11:00:41.191Z,1.10
2022-10-04T11:03:31.757Z,1.20
2022-10-04T11:06:34.333Z,1.10
2022-10-04T11:09:23.471Z,1.00
2022-10-04T11:12:01.158Z,1.00
2022-10-04T11:14:53.661Z,1.40
2022-10-04T11:17:26.867Z,1.30
2022-10-04T11:20:31.902Z,1.10
2022-10-04T11:23:22.235Z,0.90
2022-10-04T11:26:22.969Z,1.00
2022-10-04T11:28:47.696Z,1.10
2022-10-04T11:31:49.997Z,1.10
2022-10-04T11:34:22.205Z,1.20
2022-10-04T11:37:03.973Z,0.90
2022-10-04T11:39:38.608Z,0.80
2022-10-04T11:42:04.860Z,1.10
2022-10-04T11:44:43.725Z,1.00
2022-10-04T11:47:02.944Z,1.00
2022-10-04T11:49:38.734Z,0.80
2022-10-04T11:52:20.676Z,1.20
2022-10-04T11:55:13.632Z,1.10
2022-10-04T11:57:34.307Z,1.10
2022-10-04T11:59:59.492Z,1.20
2022-10-04T12:02:48.216Z,1.10
2022-10-04T12:05:32.275Z,1.10
2022-10-04T12:08:02.488Z,1.30
2022-10-04T12:10:26.910Z,1.00
2022-10-04T12:13:10.038Z,1.00
2022-10-04T12:15:55.359Z,0.90
2022-10-04T12:18:45.225Z,1.10
2022-10-04T12:21:17.366Z,1.30
2022-10-04T12:23:49.557Z,0.90
2022-10-04T12:26:21.733Z,0.80
2022-10-04T12:29:03.353Z,1.00
2022-10-04T12:31:28.290Z,1.00
2022-10-04T12:33:48.120Z,1.20
2022-10-04T12:36:14.742Z,1.10
2022-10-04T12:38:46.802Z,1.00
2022-10-04T12:41:12.079Z,1.40
2022-10-04T12:43:35.605Z,1.10
2022-10-04T12:46:01.415Z,1.00
2022-10-04T12:48:25.713Z,1.20
2022-10-04T12:50:51.865Z,1.20
2022-10-04T12:53:17.569Z,0.90
2022-10-04T12:55:54.169Z,1.00
2022-10-04T12:58:14.461Z,1.10
2022-10-04T13:00:29.981Z,1.00
2022-10-04T13:03:09.536Z,1.00
2022-10-04T13:05:30.106Z,1.30
2022-10-04T13:08:10.107Z,1.30
2022-10-04T13:10:41.192Z,0.80
2022-10-04T13:13:20.329Z,1.00
2022-10-04T13:18:26.974Z,1.00
2022-10-04T13:20:49.664Z,1.00
2022-10-04T13:25:33.734Z,1.00
2022-10-04T13:27:53.927Z,0.90
2022-10-04T13:30:19.038Z,1.10
2022-10-04T13:32:36.571Z,1.10
2022-10-04T13:34:55.499Z,1.00
2022-10-04T13:37:24.694Z,1.40
2022-10-04T13:40:24.122Z,1.30
2022-10-04T13:42:54.851Z,1.40
2022-10-04T13:45:27.161Z,1.20
2022-10-04T13:47:56.821Z,1.30
2022-10-04T13:50:31.449Z,1.10
2022-10-04T13:53:11.238Z,1.20
2022-10-04T13:55:47.150Z,1.10
2022-10-04T13:58:12.572Z,1.20
2022-10-04T14:00:48.023Z,1.40
2022-10-04T14:03:17.060Z,1.00
2022-10-04T14:06:01.041Z,1.00
2022-10-04T14:08:24.422Z,1.40
2022-10-04T14:11:01.390Z,1.10
2022-10-04T14:13:57.776Z,1.20
2022-10-04T14:16:35.715Z,1.00
2022-10-04T14:19:17.219Z,1.10
2022-10-04T14:22:03.481Z,1.10
2022-10-04T14:24:56.152Z,1.10
2022-10-04T14:27:45.568Z,1.20
2022-10-04T14:30:13.933Z,1.10
2022-10-04T14:33:03.200Z,1.10
2022-10-04T14:35:20.800Z,1.40
2022-10-04T14:38:06.172Z,1.20
2022-10-04T14:40:41.338Z,1.20
2022-10-04T14:43:21.342Z,1.00
2022-10-04T14:45:46.277Z,1.30
2022-10-04T14:48:43.761Z,1.40
2022-10-04T14:51:26.500Z,1.20
2022-10-04T14:53:44.401Z,1.20
2022-10-04T14:56:27.473Z,1.10
2022-10-04T15:01:19.675Z,1.20
2022-10-04T15:03:41.809Z,1.10
2022-10-04T15:06:17.451Z,1.60
2022-10-04T15:08:55.488Z,1.30
2022-10-04T15:11:11.352Z,1.40
2022-10-04T15:13:33.572Z,1.40
2022-10-04T15:16:03.562Z,1.40
2022-10-04T15:18:37.150Z,1.20
2022-10-04T15:21:00.056Z,1.30
2022-10-04T15:23:30.074Z,1.20
2022-10-04T15:25:50.608Z,1.10
2022-10-04T15:28:08.252Z,1.30
2022-10-04T15:30:49.428Z,1.10
2022-10-04T15:33:17.344Z,1.10
2022-10-04T15:35:40.743Z,1.30
2022-10-04T15:38:00.474Z,1.20
2022-10-04T15:40:28.251Z,1.40
2022-10-04T15:42:43.218Z,1.60
2022-10-04T15:45:26.387Z,1.30
2022-10-04T15:47:54.838Z,1.50
2022-10-04T15:50:33.220Z,1.20
2022-10-04T15:53:08.315Z,1.80
2022-10-04T15:55:42.596Z,1.30
2022-10-04T15:58:37.971Z,1.40
2022-10-04T16:01:03.958Z,1.60
2022-10-04T16:03:35.576Z,1.20
2022-10-04T16:05:52.761Z,1.40
2022-10-04T16:08:34.794Z,1.20
2022-10-04T16:11:18.254Z,1.20
2022-10-04T16:13:45.886Z,1.10
2022-10-04T16:16:27.007Z,1.40
2022-10-04T16:18:52.484Z,1.20
2022-10-04T16:21:17.776Z,1.00
2022-10-04T16:23:34.721Z,1.30
2022-10-04T16:25:49.336Z,1.40
2022-10-04T16:28:22.039Z,1.40
2022-10-04T16:30:41.909Z,1.40
2022-10-04T16:33:23.167Z,1.30
2022-10-04T16:35:40.343Z,1.40
2022-10-04T16:38:04.163Z,1.40
2022-10-04T16:40:35.945Z,1.60
2022-10-04T16:43:02.451Z,1.30
2022-10-04T16:45:53.109Z,1.40
2022-10-04T16:48:16.421Z,1.00
2022-10-04T16:51:00.345Z,1.20
2022-10-04T16:53:33.823Z,1.60
2022-10-04T16:56:13.339Z,1.70
2022-10-04T16:58:59.325Z,1.70
2022-10-04T17:01:40.815Z,1.20
2022-10-04T17:04:01.093Z,1.90
2022-10-04T17:06:37.064Z,1.80
2022-10-04T17:09:08.513Z,2.10
2022-10-04T17:11:41.724Z,1.60
2022-10-04T17:13:59.265Z,1.80
2022-10-04T17:16:21.300Z,1.70
2022-10-04T17:18:42.172Z,1.70
2022-10-04T17:21:07.489Z,2.40
2022-10-04T17:23:36.856Z,2.10
2022-10-04T17:25:58.356Z,1.90
2022-10-04T17:28:23.665Z,1.80
2022-10-04T17:30:51.619Z,2.00
2022-10-04T17:33:23.064Z,2.20
2022-10-04T17:36:03.581Z,2.60
2022-10-04T17:38:23.619Z,2.10
2022-10-04T17:40:46.967Z,2.20
2022-10-04T17:43:07.098Z,2.20
2022-10-04T17:45:57.471Z,1.70
2022-10-04T17:48:32.951Z,2.10
2022-10-04T17:51:09.492Z,2.00
2022-10-04T17:53:46.913Z,1.70
2022-10-04T17:56:03.330Z,2.20
2022-10-04T17:58:23.493Z,1.90
2022-10-04T18:01:09.138Z,1.80
2022-10-04T18:03:26.913Z,1.60
2022-10-04T18:05:49.959Z,2.40
2022-10-04T18:08:05.175Z,2.20
2022-10-04T18:10:29.518Z,1.60
2022-10-04T18:12:50.118Z,1.70
2022-10-04T18:15:21.264Z,4.40
2022-10-04T18:17:45.980Z,6.10
2022-10-04T18:20:11.317Z,7.10
2022-10-04T18:22:27.602Z,14.70
2022-10-04T18:24:40.823Z,7.20
2022-10-04T18:27:06.696Z,7.20
2022-10-04T18:29:39.098Z,6.90
2022-10-04T18:31:52.215Z,6.40
2022-10-04T18:34:18.984Z,4.00
2022-10-04T18:36:34.693Z,4.80
2022-10-04T18:38:50.347Z,5.60
2022-10-04T18:41:05.817Z,4.70
2022-10-04T18:43:33.526Z,5.10
2022-10-04T18:46:03.341Z,5.00
2022-10-04T18:48:39.473Z,4.20
2022-10-04T18:50:52.669Z,4.70
2022-10-04T18:53:33.508Z,4.60
2022-10-04T18:55:53.927Z,5.40
2022-10-04T18:58:32.951Z,5.40
2022-10-04T19:01:09.093Z,5.10
2022-10-04T19:03:33.402Z,5.00
2022-10-04T19:05:53.891Z,6.20
2022-10-04T19:08:17.906Z,6.90
2022-10-04T19:10:36.672Z,6.20
2022-10-04T19:13:02.341Z,7.60
2022-10-04T19:15:29.957Z,6.60
2022-10-04T19:17:51.676Z,5.70
2022-10-04T19:20:09.221Z,5.80
2022-10-04T19:22:35.753Z,4.60
2022-10-04T19:25:25.369Z,5.10
2022-10-04T19:27:41.873Z,4.30
2022-10-04T19:30:05.819Z,6.20
2022-10-04T19:32:31.813Z,6.00
2022-10-04T19:34:54.937Z,5.80
2022-10-04T19:37:12.115Z,7.30
2022-10-04T19:39:46.779Z,5.60
2022-10-04T19:42:03.358Z,6.20
2022-10-04T19:44:32.849Z,4.60
2022-10-04T19:46:57.319Z,3.90
2022-10-04T19:49:21.300Z,4.50
2022-10-04T19:51:41.937Z,3.80
2022-10-04T19:54:00.613Z,5.50
2022-10-04T19:56:18.584Z,6.30
2022-10-04T19:58:45.529Z,4.70
2022-10-04T20:00:59.510Z,5.20
2022-10-04T20:03:17.290Z,4.20
2022-10-04T20:05:30.525Z,3.30
2022-10-04T20:07:43.959Z,2.30
2022-10-04T20:10:11.749Z,4.10
2022-10-04T20:12:38.429Z,5.20
2022-10-04T20:14:53.666Z,3.20
2022-10-04T20:17:13.117Z,4.10
2022-10-04T20:19:40.024Z,3.70
2022-10-04T20:21:53.173Z,4.70
2022-10-04T20:24:06.211Z,4.20
2022-10-04T20:27:07.871Z,3.20
2022-10-04T20:30:05.434Z,4.10
2022-10-04T20:32:54.680Z,4.20
2022-10-04T20:35:09.159Z,4.70
2022-10-04T20:37:22.874Z,6.70
2022-10-04T20:40:05.073Z,4.60
2022-10-04T20:42:31.226Z,3.20
2022-10-04T20:44:55.009Z,3.40
2022-10-04T20:47:08.483Z,3.70
2022-10-04T20:49:24.321Z,3.90
2022-10-04T20:51:38.711Z,3.30
2022-10-04T20:53:52.365Z,4.40
2022-10-04T20:56:25.186Z,3.50
2022-10-04T21:00:58.582Z,3.40
2022-10-04T21:03:24.736Z,3.10
2022-10-04T21:05:37.837Z,3.20
2022-10-04T21:07:50.951Z,3.50
2022-10-04T21:10:19.369Z,3.50
2022-10-04T21:12:40.896Z,3.70
2022-10-04T21:15:08.810Z,4.30
2022-10-04T21:17:43.542Z,4.30
2022-10-04T21:19:56.663Z,3.70
2022-10-04T21:22:10.871Z,3.50
2022-10-04T21:24:40.943Z,3.30
2022-10-04T21:27:03.431Z,3.40
2022-10-04T21:29:16.547Z,3.00
2022-10-04T21:31:29.748Z,3.70
2022-10-04T21:33:43.360Z,3.60
2022-10-04T21:35:58.327Z,4.00
2022-10-04T21:38:11.340Z,4.00
2022-10-04T21:40:24.365Z,5.00
2022-10-04T21:42:37.464Z,4.80
2022-10-04T21:44:50.558Z,3.50
2022-10-04T21:47:03.953Z,3.90
2022-10-04T21:49:16.989Z,4.10
2022-10-04T21:51:30.013Z,4.70
2022-10-04T21:53:43.025Z,3.80
2022-10-04T21:55:56.164Z,4.60
2022-10-04T21:58:09.267Z,4.70
2022-10-04T22:00:24.243Z,4.30
2022-10-04T22:02:37.319Z,4.80
2022-10-04T22:04:50.451Z,3.80
2022-10-04T22:07:03.499Z,4.40
2022-10-04T22:09:16.846Z,4.20
2022-10-04T22:11:29.927Z,3.50
2022-10-04T22:13:43.004Z,4.60
2022-10-04T22:15:56.408Z,5.00
2022-10-04T22:18:09.567Z,5.20
2022-10-04T22:20:22.850Z,3.70
2022-10-04T22:22:39.741Z,5.00
2022-10-04T22:24:53.040Z,5.50
2022-10-04T22:27:06.592Z,5.10
2022-10-04T22:29:21.681Z,4.30
2022-10-04T22:31:35.444Z,5.30
2022-10-04T22:33:50.030Z,4.10
2022-10-04T22:36:14.198Z,4.10
2022-10-04T22:38:27.257Z,4.50
2022-10-04T22:40:40.312Z,5.40
2022-10-04T22:42:57.741Z,5.90
2022-10-04T22:45:19.242Z,6.30
2022-10-04T22:47:34.961Z,6.50
2022-10-04T22:49:50.148Z,6.00
2022-10-04T22:52:05.176Z,3.40
2022-10-04T22:54:24.677Z,4.10
2022-10-04T22:56:38.199Z,4.40
2022-10-04T22:58:51.228Z,4.50
2022-10-04T23:01:04.351Z,6.70
2022-10-04T23:03:28.643Z,4.80
2022-10-04T23:05:41.743Z,4.10
2022-10-04T23:07:55.443Z,3.20
2022-10-04T23:10:08.893Z,2.80
2022-10-04T23:12:21.965Z,2.40
2022-10-04T23:14:38.103Z,2.40
2022-10-04T23:16:51.838Z,2.60
2022-10-04T23:19:12.962Z,2.90
2022-10-04T23:21:34.475Z,3.80
2022-10-04T23:23:47.489Z,3.80
2022-10-04T23:26:00.741Z,3.50
2022-10-04T23:28:19.004Z,4.40
2022-10-04T23:30:32.554Z,9.80
2022-10-04T23:32:45.658Z,11.50
2022-10-04T23:34:58.874Z,10.50
2022-10-04T23:37:22.695Z,11.30
2022-10-04T23:39:38.546Z,7.80
2022-10-04T23:41:51.661Z,4.70
2022-10-04T23:44:04.821Z,5.00
2022-10-04T23:46:22.248Z,4.90
2022-10-04T23:48:36.009Z,4.50
2022-10-04T23:50:49.321Z,4.60
2022-10-04T23:53:05.825Z,4.80
2022-10-04T23:55:23.832Z,8.60
2022-10-04T23:57:36.899Z,6.20
2022-10-04T23:59:50.197Z,4.90
